sensor_id;sensor_type;location;lat;lon;timestamp;pressure;altitude;pressure_sealevel;temperature;humidity
16664;BME280;8445;51.270;9.434;2023-01-25T00:00:32;101430.91;;;2.08;72.11
16664;BME280;8445;51.270;9.434;2023-01-25T00:02:58;101427.47;;;2.05;72.36
16664;BME280;8445;51.270;9.434;2023-01-25T00:05:24;101428.38;;;2.02;72.33
16664;BME280;8445;51.270;9.434;2023-01-25T00:07:50;101435.34;;;2.00;72.09
16664;BME280;8445;51.270;9.434;2023-01-25T00:10:17;101430.13;;;1.97;72.08
16664;BME280;8445;51.270;9.434;2023-01-25T00:12:43;101429.25;;;1.97;72.18
16664;BME280;8445;51.270;9.434;2023-01-25T00:15:10;101425.81;;;1.91;72.33
16664;BME280;8445;51.270;9.434;2023-01-25T00:17:36;101427.56;;;1.89;72.45
16664;BME280;8445;51.270;9.434;2023-01-25T00:20:03;101429.31;;;1.92;72.31
16664;BME280;8445;51.270;9.434;2023-01-25T00:22:29;101421.44;;;1.95;72.25
16664;BME280;8445;51.270;9.434;2023-01-25T00:24:55;101419.66;;;2.02;72.42
16664;BME280;8445;51.270;9.434;2023-01-25T00:27:21;101419.59;;;2.06;72.49
16664;BME280;8445;51.270;9.434;2023-01-25T00:29:47;101423.94;;;2.09;72.45
16664;BME280;8445;51.270;9.434;2023-01-25T00:34:42;101424.78;;;2.13;72.39
16664;BME280;8445;51.270;9.434;2023-01-25T00:37:26;101425.66;;;2.13;71.94
16664;BME280;8445;51.270;9.434;2023-01-25T00:39:56;101424.81;;;2.10;71.90
16664;BME280;8445;51.270;9.434;2023-01-25T00:42:21;101411.78;;;2.05;71.95
16664;BME280;8445;51.270;9.434;2023-01-25T00:44:47;101417.03;;;2.05;72.08
16664;BME280;8445;51.270;9.434;2023-01-25T00:47:13;101417.03;;;2.05;72.54
16664;BME280;8445;51.270;9.434;2023-01-25T00:49:40;101415.28;;;2.05;72.59
16664;BME280;8445;51.270;9.434;2023-01-25T00:52:08;101410.06;;;2.04;72.23
16664;BME280;8445;51.270;9.434;2023-01-25T00:54:34;101410.06;;;2.04;72.42
16664;BME280;8445;51.270;9.434;2023-01-25T00:56:59;101406.56;;;2.05;72.12
16664;BME280;8445;51.270;9.434;2023-01-25T00:59:25;101411.00;;;1.95;72.05
16664;BME280;8445;51.270;9.434;2023-01-25T01:01:52;101406.72;;;1.88;72.80
16664;BME280;8445;51.270;9.434;2023-01-25T01:04:19;101405.88;;;1.83;72.71
16664;BME280;8445;51.270;9.434;2023-01-25T01:06:46;101411.09;;;1.78;72.17
16664;BME280;8445;51.270;9.434;2023-01-25T01:09:17;101406.75;;;1.77;72.13
16664;BME280;8445;51.270;9.434;2023-01-25T01:11:47;101406.75;;;1.77;72.60
16664;BME280;8445;51.270;9.434;2023-01-25T01:14:19;101403.25;;;1.81;72.40
16664;BME280;8445;51.270;9.434;2023-01-25T01:16:49;101405.88;;;1.83;71.95
16664;BME280;8445;51.270;9.434;2023-01-25T01:19:18;101405.88;;;1.81;72.85
16664;BME280;8445;51.270;9.434;2023-01-25T01:21:44;101407.59;;;1.85;72.48
16664;BME280;8445;51.270;9.434;2023-01-25T01:24:12;101401.47;;;1.86;72.72
16664;BME280;8445;51.270;9.434;2023-01-25T01:26:42;101402.31;;;1.91;72.36
16664;BME280;8445;51.270;9.434;2023-01-25T01:29:14;101403.19;;;1.93;72.69
16664;BME280;8445;51.270;9.434;2023-01-25T01:31:42;101400.56;;;1.95;72.35
16664;BME280;8445;51.270;9.434;2023-01-25T01:34:17;101401.41;;;1.96;72.76
16664;BME280;8445;51.270;9.434;2023-01-25T01:36:44;101405.75;;;1.97;72.54
16664;BME280;8445;51.270;9.434;2023-01-25T01:39:10;101404.88;;;1.98;72.50
16664;BME280;8445;51.270;9.434;2023-01-25T01:41:36;101402.28;;;1.98;72.43
16664;BME280;8445;51.270;9.434;2023-01-25T01:44:03;101406.59;;;2.02;72.56
16664;BME280;8445;51.270;9.434;2023-01-25T01:46:32;101398.75;;;2.05;72.15
16664;BME280;8445;51.270;9.434;2023-01-25T01:49:21;101397.84;;;2.09;72.67
16664;BME280;8445;51.270;9.434;2023-01-25T01:51:57;101396.13;;;2.05;73.15
16664;BME280;8445;51.270;9.434;2023-01-25T01:54:37;101393.50;;;2.06;72.49
16664;BME280;8445;51.270;9.434;2023-01-25T01:57:40;101390.88;;;2.08;72.71
16664;BME280;8445;51.270;9.434;2023-01-25T02:00:22;101395.25;;;2.06;72.84
16664;BME280;8445;51.270;9.434;2023-01-25T02:02:54;101390.91;;;2.05;72.83
16664;BME280;8445;51.270;9.434;2023-01-25T02:05:59;101380.44;;;2.06;72.66
16664;BME280;8445;51.270;9.434;2023-01-25T02:08:32;101382.19;;;2.06;72.56
16664;BME280;8445;51.270;9.434;2023-01-25T02:11:09;101380.47;;;2.05;72.76
16664;BME280;8445;51.270;9.434;2023-01-25T02:13:40;101379.63;;;2.03;72.11
16664;BME280;8445;51.270;9.434;2023-01-25T02:16:17;101374.41;;;2.03;72.30
16664;BME280;8445;51.270;9.434;2023-01-25T02:18:47;101387.44;;;2.03;72.38
16664;BME280;8445;51.270;9.434;2023-01-25T02:21:16;101384.84;;;2.03;72.61
16664;BME280;8445;51.270;9.434;2023-01-25T02:23:55;101377.88;;;2.03;72.53
16664;BME280;8445;51.270;9.434;2023-01-25T02:26:30;101377.91;;;2.00;72.23
16664;BME280;8445;51.270;9.434;2023-01-25T02:29:05;101377.00;;;2.04;72.58
16664;BME280;8445;51.270;9.434;2023-01-25T02:31:34;101378.75;;;2.04;72.86
16664;BME280;8445;51.270;9.434;2023-01-25T02:34:04;101378.75;;;2.01;72.39
16664;BME280;8445;51.270;9.434;2023-01-25T02:36:34;101371.81;;;2.00;73.04
16664;BME280;8445;51.270;9.434;2023-01-25T02:39:17;101371.78;;;2.03;72.60
16664;BME280;8445;51.270;9.434;2023-01-25T02:41:47;101368.31;;;2.01;72.13
16664;BME280;8445;51.270;9.434;2023-01-25T02:44:20;101364.84;;;1.99;72.30
16664;BME280;8445;51.270;9.434;2023-01-25T02:46:51;101366.63;;;1.98;72.10
16664;BME280;8445;51.270;9.434;2023-01-25T02:49:17;101365.78;;;1.93;72.63
16664;BME280;8445;51.270;9.434;2023-01-25T02:51:51;101370.13;;;1.92;72.71
16664;BME280;8445;51.270;9.434;2023-01-25T02:54:20;101366.63;;;1.93;72.48
16664;BME280;8445;51.270;9.434;2023-01-25T02:56:46;101356.19;;;1.95;72.18
16664;BME280;8445;51.270;9.434;2023-01-25T02:59:12;101351.81;;;1.96;72.36
16664;BME280;8445;51.270;9.434;2023-01-25T03:01:41;101346.63;;;1.94;72.87
16664;BME280;8445;51.270;9.434;2023-01-25T03:04:07;101345.75;;;1.95;72.24
16664;BME280;8445;51.270;9.434;2023-01-25T03:06:33;101348.38;;;1.95;72.22
16664;BME280;8445;51.270;9.434;2023-01-25T03:09:00;101341.44;;;1.91;72.37
16664;BME280;8445;51.270;9.434;2023-01-25T03:11:26;101340.56;;;1.90;72.87
16664;BME280;8445;51.270;9.434;2023-01-25T03:13:51;101335.38;;;1.87;72.71
16664;BME280;8445;51.270;9.434;2023-01-25T03:16:17;101329.31;;;1.84;72.86
16664;BME280;8445;51.270;9.434;2023-01-25T03:18:43;101330.19;;;1.81;72.57
16664;BME280;8445;51.270;9.434;2023-01-25T03:21:15;101333.66;;;1.83;72.82
16664;BME280;8445;51.270;9.434;2023-01-25T03:23:42;101327.59;;;1.81;72.85
16664;BME280;8445;51.270;9.434;2023-01-25T03:26:13;101321.50;;;1.81;72.73
16664;BME280;8445;51.270;9.434;2023-01-25T03:28:54;101320.63;;;1.80;73.35
16664;BME280;8445;51.270;9.434;2023-01-25T03:31:19;101323.25;;;1.80;73.08
16664;BME280;8445;51.270;9.434;2023-01-25T03:33:46;101321.50;;;1.79;72.73
16664;BME280;8445;51.270;9.434;2023-01-25T03:36:12;101313.72;;;1.76;72.97
16664;BME280;8445;51.270;9.434;2023-01-25T03:38:37;101311.16;;;1.73;73.24
16664;BME280;8445;51.270;9.434;2023-01-25T03:41:03;101310.25;;;1.75;72.70
16664;BME280;8445;51.270;9.434;2023-01-25T03:43:29;101305.91;;;1.76;72.56
16664;BME280;8445;51.270;9.434;2023-01-25T03:45:59;101312.03;;;1.72;72.30
16664;BME280;8445;51.270;9.434;2023-01-25T03:48:26;101308.53;;;1.73;72.71
16664;BME280;8445;51.270;9.434;2023-01-25T03:50:57;101303.31;;;1.71;72.82
16664;BME280;8445;51.270;9.434;2023-01-25T03:53:25;101293.75;;;1.72;73.26
16664;BME280;8445;51.270;9.434;2023-01-25T03:56:07;101297.25;;;1.71;72.81
16664;BME280;8445;51.270;9.434;2023-01-25T03:58:35;101292.03;;;1.71;72.37
16664;BME280;8445;51.270;9.434;2023-01-25T04:01:03;101282.44;;;1.71;72.60
16664;BME280;8445;51.270;9.434;2023-01-25T04:03:29;101283.31;;;1.75;73.50
16664;BME280;8445;51.270;9.434;2023-01-25T04:05:55;101285.06;;;1.73;72.89
16664;BME280;8445;51.270;9.434;2023-01-25T04:08:22;101280.72;;;1.72;72.70
16664;BME280;8445;51.270;9.434;2023-01-25T04:10:52;101282.44;;;1.71;73.36
16664;BME280;8445;51.270;9.434;2023-01-25T04:13:23;101285.94;;;1.70;73.15
16664;BME280;8445;51.270;9.434;2023-01-25T04:15:50;101281.59;;;1.69;73.29
16664;BME280;8445;51.270;9.434;2023-01-25T04:18:32;101272.91;;;1.69;72.68
16664;BME280;8445;51.270;9.434;2023-01-25T04:20:57;101273.78;;;1.68;73.13
16664;BME280;8445;51.270;9.434;2023-01-25T04:23:24;101278.16;;;1.64;72.66
16664;BME280;8445;51.270;9.434;2023-01-25T04:26:01;101279.06;;;1.61;73.16
16664;BME280;8445;51.270;9.434;2023-01-25T04:28:30;101266.03;;;1.61;72.82
16664;BME280;8445;51.270;9.434;2023-01-25T04:30:56;101267.75;;;1.62;73.33
16664;BME280;8445;51.270;9.434;2023-01-25T04:33:25;101261.66;;;1.63;72.97
16664;BME280;8445;51.270;9.434;2023-01-25T04:35:51;101267.75;;;1.62;73.07
16664;BME280;8445;51.270;9.434;2023-01-25T04:38:17;101265.13;;;1.62;73.19
16664;BME280;8445;51.270;9.434;2023-01-25T04:40:43;101261.69;;;1.60;73.31
16664;BME280;8445;51.270;9.434;2023-01-25T04:43:12;101255.59;;;1.61;73.14
16664;BME280;8445;51.270;9.434;2023-01-25T04:45:39;101257.31;;;1.62;73.83
16664;BME280;8445;51.270;9.434;2023-01-25T04:48:12;101252.09;;;1.62;72.99
16664;BME280;8445;51.270;9.434;2023-01-25T04:50:44;101255.59;;;1.61;73.74
16664;BME280;8445;51.270;9.434;2023-01-25T04:53:11;101257.31;;;1.62;73.43
16664;BME280;8445;51.270;9.434;2023-01-25T04:55:37;101255.59;;;1.61;73.93
16664;BME280;8445;51.270;9.434;2023-01-25T04:58:03;101256.47;;;1.60;73.73
16664;BME280;8445;51.270;9.434;2023-01-25T05:00:30;101257.31;;;1.61;73.64
16664;BME280;8445;51.270;9.434;2023-01-25T05:02:58;101262.56;;;1.59;73.47
16664;BME280;8445;51.270;9.434;2023-01-25T05:05:24;101259.06;;;1.59;73.54
16664;BME280;8445;51.270;9.434;2023-01-25T05:07:52;101252.16;;;1.56;73.63
16664;BME280;8445;51.270;9.434;2023-01-25T05:10:17;101257.38;;;1.53;73.70
16664;BME280;8445;51.270;9.434;2023-01-25T05:13:03;101250.44;;;1.52;73.63
16664;BME280;8445;51.270;9.434;2023-01-25T05:15:30;101255.66;;;1.52;74.03
16664;BME280;8445;51.270;9.434;2023-01-25T05:17:55;101256.53;;;1.51;73.73
16664;BME280;8445;51.270;9.434;2023-01-25T05:20:21;101253.03;;;1.52;74.14
16664;BME280;8445;51.270;9.434;2023-01-25T05:22:46;101241.72;;;1.53;73.32
16664;BME280;8445;51.270;9.434;2023-01-25T05:25:13;101242.63;;;1.52;73.39
16664;BME280;8445;51.270;9.434;2023-01-25T05:27:58;101241.72;;;1.53;73.55
16664;BME280;8445;51.270;9.434;2023-01-25T05:30:42;101244.34;;;1.53;73.31
16664;BME280;8445;51.270;9.434;2023-01-25T05:33:21;101240.00;;;1.52;73.30
16664;BME280;8445;51.270;9.434;2023-01-25T05:35:48;101239.13;;;1.52;73.22
16664;BME280;8445;51.270;9.434;2023-01-25T05:38:13;101241.72;;;1.52;73.94
16664;BME280;8445;51.270;9.434;2023-01-25T05:40:41;101231.31;;;1.50;73.87
16664;BME280;8445;51.270;9.434;2023-01-25T05:43:07;101238.28;;;1.48;73.55
16664;BME280;8445;51.270;9.434;2023-01-25T05:45:32;101233.13;;;1.42;73.65
16664;BME280;8445;51.270;9.434;2023-01-25T05:47:59;101230.53;;;1.39;73.68
16664;BME280;8445;51.270;9.434;2023-01-25T05:50:25;101239.28;;;1.35;73.87
16664;BME280;8445;51.270;9.434;2023-01-25T05:53:01;101247.09;;;1.31;74.23
16664;BME280;8445;51.270;9.434;2023-01-25T05:55:28;101242.78;;;1.30;74.09
16664;BME280;8445;51.270;9.434;2023-01-25T05:57:55;101239.31;;;1.30;73.73
16664;BME280;8445;51.270;9.434;2023-01-25T06:00:21;101236.69;;;1.31;74.37
16664;BME280;8445;51.270;9.434;2023-01-25T06:02:47;101238.41;;;1.32;74.70
16664;BME280;8445;51.270;9.434;2023-01-25T06:05:16;101234.06;;;1.33;74.44
16664;BME280;8445;51.270;9.434;2023-01-25T06:07:42;101233.19;;;1.36;74.46
16664;BME280;8445;51.270;9.434;2023-01-25T06:10:08;101234.94;;;1.35;74.26
16664;BME280;8445;51.270;9.434;2023-01-25T06:12:33;101228.84;;;1.36;74.28
16664;BME280;8445;51.270;9.434;2023-01-25T06:15:00;101214.91;;;1.36;74.39
16664;BME280;8445;51.270;9.434;2023-01-25T06:17:25;101223.59;;;1.38;74.49
16664;BME280;8445;51.270;9.434;2023-01-25T06:19:59;101218.38;;;1.39;74.15
16664;BME280;8445;51.270;9.434;2023-01-25T06:22:33;101231.41;;;1.38;74.43
16664;BME280;8445;51.270;9.434;2023-01-25T06:24:58;101228.81;;;1.38;74.47
16664;BME280;8445;51.270;9.434;2023-01-25T06:27:23;101231.44;;;1.35;74.77
16664;BME280;8445;51.270;9.434;2023-01-25T06:29:49;101224.53;;;1.32;74.78
16664;BME280;8445;51.270;9.434;2023-01-25T06:32:14;101221.06;;;1.28;75.20
16664;BME280;8445;51.270;9.434;2023-01-25T06:34:40;101228.03;;;1.26;75.07
16664;BME280;8445;51.270;9.434;2023-01-25T06:37:08;101229.78;;;1.26;74.68
16664;BME280;8445;51.270;9.434;2023-01-25T06:39:34;101229.75;;;1.27;74.95
16664;BME280;8445;51.270;9.434;2023-01-25T06:41:59;101225.44;;;1.28;74.29
16664;BME280;8445;51.270;9.434;2023-01-25T06:44:25;101228.84;;;1.31;74.76
16664;BME280;8445;51.270;9.434;2023-01-25T06:46:50;101224.50;;;1.33;74.75
16664;BME280;8445;51.270;9.434;2023-01-25T06:49:16;101234.06;;;1.35;74.65
16664;BME280;8445;51.270;9.434;2023-01-25T06:51:41;101226.22;;;1.35;74.53
16664;BME280;8445;51.270;9.434;2023-01-25T06:54:06;101234.94;;;1.35;75.33
16664;BME280;8445;51.270;9.434;2023-01-25T06:56:41;101229.66;;;1.40;75.18
16664;BME280;8445;51.270;9.434;2023-01-25T06:59:06;101220.97;;;1.41;74.92
16664;BME280;8445;51.270;9.434;2023-01-25T07:01:32;101227.03;;;1.43;74.91
16664;BME280;8445;51.270;9.434;2023-01-25T07:03:58;101219.22;;;1.43;74.37
16664;BME280;8445;51.270;9.434;2023-01-25T07:06:24;101223.56;;;1.42;74.57
16664;BME280;8445;51.270;9.434;2023-01-25T07:08:50;101219.22;;;1.43;74.61
16664;BME280;8445;51.270;9.434;2023-01-25T07:11:16;101212.25;;;1.45;74.63
16664;BME280;8445;51.270;9.434;2023-01-25T07:13:44;101210.50;;;1.44;74.34
16664;BME280;8445;51.270;9.434;2023-01-25T07:16:13;101210.50;;;1.44;74.50
16664;BME280;8445;51.270;9.434;2023-01-25T07:18:39;101206.19;;;1.41;74.45
16664;BME280;8445;51.270;9.434;2023-01-25T07:21:13;101218.38;;;1.39;74.81
16664;BME280;8445;51.270;9.434;2023-01-25T07:23:39;101222.72;;;1.39;74.90
16664;BME280;8445;51.270;9.434;2023-01-25T07:26:10;101210.53;;;1.41;74.82
16664;BME280;8445;51.270;9.434;2023-01-25T07:28:38;101212.25;;;1.42;74.42
16664;BME280;8445;51.270;9.434;2023-01-25T07:31:04;101204.47;;;1.40;75.03
16664;BME280;8445;51.270;9.434;2023-01-25T07:33:31;101207.06;;;1.42;75.02
16664;BME280;8445;51.270;9.434;2023-01-25T07:36:00;101209.66;;;1.43;74.47
16664;BME280;8445;51.270;9.434;2023-01-25T07:38:26;101210.50;;;1.47;74.75
16664;BME280;8445;51.270;9.434;2023-01-25T07:40:52;101207.03;;;1.46;74.10
16664;BME280;8445;51.270;9.434;2023-01-25T07:43:18;101206.19;;;1.44;74.49
16664;BME280;8445;51.270;9.434;2023-01-25T07:45:44;101205.28;;;1.44;74.22
16664;BME280;8445;51.270;9.434;2023-01-25T07:48:13;101194.88;;;1.44;74.78
16664;BME280;8445;51.270;9.434;2023-01-25T07:50:39;101194.84;;;1.47;74.49
16664;BME280;8445;51.270;9.434;2023-01-25T07:53:06;101196.56;;;1.48;74.56
16664;BME280;8445;51.270;9.434;2023-01-25T07:55:33;101180.91;;;1.48;74.95
16664;BME280;8445;51.270;9.434;2023-01-25T07:57:58;101189.56;;;1.52;74.46
16664;BME280;8445;51.270;9.434;2023-01-25T08:00:25;101188.69;;;1.54;74.48
16664;BME280;8445;51.270;9.434;2023-01-25T08:02:51;101191.28;;;1.57;74.20
16664;BME280;8445;51.270;9.434;2023-01-25T08:05:17;101192.97;;;1.61;74.05
16664;BME280;8445;51.270;9.434;2023-01-25T08:07:44;101187.72;;;1.63;73.97
16664;BME280;8445;51.270;9.434;2023-01-25T08:10:10;101191.19;;;1.67;74.32
16664;BME280;8445;51.270;9.434;2023-01-25T08:12:35;101192.00;;;1.72;73.94
16664;BME280;8445;51.270;9.434;2023-01-25T08:15:01;101191.13;;;1.73;73.93
16664;BME280;8445;51.270;9.434;2023-01-25T08:17:26;101188.53;;;1.73;74.17
16664;BME280;8445;51.270;9.434;2023-01-25T08:19:59;101192.88;;;1.74;74.28
16664;BME280;8445;51.270;9.434;2023-01-25T08:22:26;101191.09;;;1.74;73.82
16664;BME280;8445;51.270;9.434;2023-01-25T08:24:53;101188.44;;;1.79;73.71
16664;BME280;8445;51.270;9.434;2023-01-25T08:27:19;101188.44;;;1.79;73.70
16664;BME280;8445;51.270;9.434;2023-01-25T08:29:45;101190.19;;;1.77;74.19
16664;BME280;8445;51.270;9.434;2023-01-25T08:32:11;101192.81;;;1.78;74.13
16664;BME280;8445;51.270;9.434;2023-01-25T08:34:36;101184.13;;;1.76;73.94
16664;BME280;8445;51.270;9.434;2023-01-25T08:37:04;101186.75;;;1.73;74.29
16664;BME280;8445;51.270;9.434;2023-01-25T08:39:29;101191.13;;;1.73;74.09
16664;BME280;8445;51.270;9.434;2023-01-25T08:41:55;101195.41;;;1.77;73.85
16664;BME280;8445;51.270;9.434;2023-01-25T08:44:20;101198.84;;;1.82;74.11
16664;BME280;8445;51.270;9.434;2023-01-25T08:46:48;101198.84;;;1.82;74.17
16664;BME280;8445;51.270;9.434;2023-01-25T08:49:14;101184.09;;;1.78;74.11
16664;BME280;8445;51.270;9.434;2023-01-25T08:51:40;101189.31;;;1.78;73.79
16664;BME280;8445;51.270;9.434;2023-01-25T08:54:07;101184.09;;;1.78;74.35
16664;BME280;8445;51.270;9.434;2023-01-25T08:56:38;101180.66;;;1.76;74.30
16664;BME280;8445;51.270;9.434;2023-01-25T08:59:04;101182.44;;;1.74;74.62
16664;BME280;8445;51.270;9.434;2023-01-25T09:01:30;101180.69;;;1.71;74.41
16664;BME280;8445;51.270;9.434;2023-01-25T09:03:55;101180.66;;;1.76;74.25
16664;BME280;8445;51.270;9.434;2023-01-25T09:06:21;101169.28;;;1.80;74.27
16664;BME280;8445;51.270;9.434;2023-01-25T09:08:47;101164.91;;;1.82;74.36
16664;BME280;8445;51.270;9.434;2023-01-25T09:11:18;101159.66;;;1.85;75.06
16664;BME280;8445;51.270;9.434;2023-01-25T09:13:44;101157.94;;;1.84;74.25
16664;BME280;8445;51.270;9.434;2023-01-25T09:16:14;101162.38;;;1.77;74.82
16664;BME280;8445;51.270;9.434;2023-01-25T09:18:41;101169.41;;;1.71;75.19
16664;BME280;8445;51.270;9.434;2023-01-25T09:21:12;101158.91;;;1.75;75.55
16664;BME280;8445;51.270;9.434;2023-01-25T09:23:38;101156.34;;;1.72;75.84
16664;BME280;8445;51.270;9.434;2023-01-25T09:26:05;101168.59;;;1.66;75.85
16664;BME280;8445;51.270;9.434;2023-01-25T09:28:32;101163.47;;;1.56;75.89
16664;BME280;8445;51.270;9.434;2023-01-25T09:31:01;101161.00;;;1.42;75.90
16664;BME280;8445;51.270;9.434;2023-01-25T09:33:47;101159.38;;;1.26;76.65
16664;BME280;8445;51.270;9.434;2023-01-25T09:36:14;101169.84;;;1.21;76.97
16664;BME280;8445;51.270;9.434;2023-01-25T09:38:39;101163.69;;;1.28;77.22
16664;BME280;8445;51.270;9.434;2023-01-25T09:44:10;101150.44;;;1.52;76.69
16664;BME280;8445;51.270;9.434;2023-01-25T09:46:43;101148.63;;;1.61;76.58
16664;BME280;8445;51.270;9.434;2023-01-25T09:52:15;101144.06;;;1.79;76.81
16664;BME280;8445;51.270;9.434;2023-01-25T09:54:47;101143.94;;;1.93;76.11
16664;BME280;8445;51.270;9.434;2023-01-25T09:57:35;101143.88;;;1.98;76.03
16664;BME280;8445;51.270;9.434;2023-01-25T10:00:07;101142.09;;;2.00;75.98
16664;BME280;8445;51.270;9.434;2023-01-25T10:02:57;101135.19;;;1.96;75.44
16664;BME280;8445;51.270;9.434;2023-01-25T10:05:29;101129.09;;;1.98;75.99
16664;BME280;8445;51.270;9.434;2023-01-25T10:08:02;101127.22;;;2.08;75.83
16664;BME280;8445;51.270;9.434;2023-01-25T10:10:38;101119.22;;;2.20;75.34
16664;BME280;8445;51.270;9.434;2023-01-25T10:13:12;101114.78;;;2.27;75.46
16664;BME280;8445;51.270;9.434;2023-01-25T10:16:03;101118.13;;;2.39;74.95
16664;BME280;8445;51.270;9.434;2023-01-25T10:21:41;101118.03;;;2.43;74.82
16664;BME280;8445;51.270;9.434;2023-01-25T10:26:57;101106.66;;;2.49;74.20
16664;BME280;8445;51.270;9.434;2023-01-25T10:29:28;101105.78;;;2.50;74.73
16664;BME280;8445;51.270;9.434;2023-01-25T10:34:48;101101.47;;;2.46;73.83
16664;BME280;8445;51.270;9.434;2023-01-25T10:37:29;101100.59;;;2.47;74.57
16664;BME280;8445;51.270;9.434;2023-01-25T10:40:14;101091.06;;;2.41;73.59
16664;BME280;8445;51.270;9.434;2023-01-25T10:43:02;101086.72;;;2.42;74.10
16664;BME280;8445;51.270;9.434;2023-01-25T10:45:30;101087.56;;;2.42;74.41
16664;BME280;8445;51.270;9.434;2023-01-25T10:48:06;101085.03;;;2.37;74.40
16664;BME280;8445;51.270;9.434;2023-01-25T10:53:32;101075.53;;;2.35;74.47
16664;BME280;8445;51.270;9.434;2023-01-25T10:58:38;101063.47;;;2.25;74.36
16664;BME280;8445;51.270;9.434;2023-01-25T11:01:07;101059.94;;;2.27;75.00
16664;BME280;8445;51.270;9.434;2023-01-25T11:03:42;101058.03;;;2.37;74.73
16664;BME280;8445;51.270;9.434;2023-01-25T11:06:13;101055.47;;;2.35;74.86
16664;BME280;8445;51.270;9.434;2023-01-25T11:08:40;101052.72;;;2.43;74.99
16664;BME280;8445;51.270;9.434;2023-01-25T11:11:31;101042.97;;;2.55;75.00
16664;BME280;8445;51.270;9.434;2023-01-25T11:13:59;101041.16;;;2.60;74.76
16664;BME280;8445;51.270;9.434;2023-01-25T11:16:29;101029.78;;;2.64;74.90
16664;BME280;8445;51.270;9.434;2023-01-25T11:18:56;101025.34;;;2.69;74.74
16664;BME280;8445;51.270;9.434;2023-01-25T11:21:27;101023.53;;;2.73;74.15
16664;BME280;8445;51.270;9.434;2023-01-25T11:24:02;101021.69;;;2.78;74.35
16664;BME280;8445;51.270;9.434;2023-01-25T11:26:29;101023.41;;;2.80;74.14
16664;BME280;8445;51.270;9.434;2023-01-25T11:29:15;101013.00;;;2.77;74.08
16664;BME280;8445;51.270;9.434;2023-01-25T11:31:45;101003.50;;;2.73;74.38
16664;BME280;8445;51.270;9.434;2023-01-25T11:34:14;100996.50;;;2.75;75.21
16664;BME280;8445;51.270;9.434;2023-01-25T11:50:17;100972.78;;;2.86;74.64
16664;BME280;8445;51.270;9.434;2023-01-25T11:53:20;100964.03;;;2.87;74.64
16664;BME280;8445;51.270;9.434;2023-01-25T12:01:20;100958.75;;;2.92;75.31
16664;BME280;8445;51.270;9.434;2023-01-25T12:06:32;100942.84;;;3.03;74.83
16664;BME280;8445;51.270;9.434;2023-01-25T12:09:24;100945.53;;;2.98;74.44
16664;BME280;8445;51.270;9.434;2023-01-25T12:12:06;100932.69;;;2.87;74.20
16664;BME280;8445;51.270;9.434;2023-01-25T12:18:10;100925.00;;;2.79;74.31
16664;BME280;8445;51.270;9.434;2023-01-25T12:23:53;100912.09;;;2.69;73.85
16664;BME280;8445;51.270;9.434;2023-01-25T12:26:30;100893.88;;;2.65;74.56
16664;BME280;8445;51.270;9.434;2023-01-25T12:29:03;100900.88;;;2.65;74.66
16664;BME280;8445;51.270;9.434;2023-01-25T12:31:46;100884.41;;;2.61;74.81
16664;BME280;8445;51.270;9.434;2023-01-25T12:34:22;100880.00;;;2.63;74.33
16664;BME280;8445;51.270;9.434;2023-01-25T12:36:50;100870.34;;;2.67;74.41
16664;BME280;8445;51.270;9.434;2023-01-25T12:39:20;100868.56;;;2.69;74.88
16664;BME280;8445;51.270;9.434;2023-01-25T12:44:25;100858.94;;;2.71;74.80
16664;BME280;8445;51.270;9.434;2023-01-25T12:47:15;100852.16;;;2.61;74.05
16664;BME280;8445;51.270;9.434;2023-01-25T12:49:51;100857.50;;;2.56;74.15
16664;BME280;8445;51.270;9.434;2023-01-25T12:52:31;100844.44;;;2.56;75.05
16664;BME280;8445;51.270;9.434;2023-01-25T12:55:00;100846.16;;;2.56;75.01
16664;BME280;8445;51.270;9.434;2023-01-25T12:57:34;100845.34;;;2.54;74.35
16664;BME280;8445;51.270;9.434;2023-01-25T13:00:06;100829.66;;;2.54;74.42
16664;BME280;8445;51.270;9.434;2023-01-25T13:08:13;100819.22;;;2.54;74.85
16664;BME280;8445;51.270;9.434;2023-01-25T13:10:48;100808.94;;;2.44;74.43
16664;BME280;8445;51.270;9.434;2023-01-25T13:13:26;100807.22;;;2.43;74.36
16664;BME280;8445;51.270;9.434;2023-01-25T13:15:56;100801.94;;;2.46;74.54
16664;BME280;8445;51.270;9.434;2023-01-25T13:21:04;100800.22;;;2.45;74.15
16664;BME280;8445;51.270;9.434;2023-01-25T13:23:36;100783.88;;;2.35;74.51
16664;BME280;8445;51.270;9.434;2023-01-25T13:28:49;100779.69;;;2.27;74.76
16664;BME280;8445;51.270;9.434;2023-01-25T13:34:05;100769.31;;;2.24;74.82
16664;BME280;8445;51.270;9.434;2023-01-25T13:42:01;100757.25;;;2.16;74.87
16664;BME280;8445;51.270;9.434;2023-01-25T13:44:32;100752.03;;;2.16;74.79
16664;BME280;8445;51.270;9.434;2023-01-25T13:47:02;100756.31;;;2.20;74.74
16664;BME280;8445;51.270;9.434;2023-01-25T13:49:44;100754.53;;;2.22;74.65
16664;BME280;8445;51.270;9.434;2023-01-25T13:52:17;100740.72;;;2.17;74.18
16664;BME280;8445;51.270;9.434;2023-01-25T13:54:47;100740.81;;;2.11;74.61
16664;BME280;8445;51.270;9.434;2023-01-25T13:57:33;100736.59;;;2.04;74.55
16664;BME280;8445;51.270;9.434;2023-01-25T14:00:06;100732.38;;;1.97;74.37
16664;BME280;8445;51.270;9.434;2023-01-25T14:02:36;100728.09;;;1.94;74.56
16664;BME280;8445;51.270;9.434;2023-01-25T14:05:03;100724.59;;;1.93;74.61
16664;BME280;8445;51.270;9.434;2023-01-25T14:07:33;100721.22;;;1.88;74.48
16664;BME280;8445;51.270;9.434;2023-01-25T14:10:08;100722.22;;;1.83;74.55
16664;BME280;8445;51.270;9.434;2023-01-25T14:12:41;100720.47;;;1.82;74.56
16664;BME280;8445;51.270;9.434;2023-01-25T14:15:19;100719.56;;;1.84;74.09
16664;BME280;8445;51.270;9.434;2023-01-25T14:18:13;100717.88;;;1.80;73.99
16664;BME280;8445;51.270;9.434;2023-01-25T14:20:41;100708.38;;;1.77;74.68
16664;BME280;8445;51.270;9.434;2023-01-25T14:23:27;100716.09;;;1.82;74.35
16664;BME280;8445;51.270;9.434;2023-01-25T14:25:55;100707.44;;;1.80;74.60
16664;BME280;8445;51.270;9.434;2023-01-25T14:28:22;100709.22;;;1.80;73.86
16664;BME280;8445;51.270;9.434;2023-01-25T14:30:53;100704.09;;;1.75;74.07
16664;BME280;8445;51.270;9.434;2023-01-25T14:35:52;100690.31;;;1.67;73.86
16664;BME280;8445;51.270;9.434;2023-01-25T14:38:27;100675.63;;;1.61;74.34
16664;BME280;8445;51.270;9.434;2023-01-25T14:41:13;100676.50;;;1.61;74.58